createdAt,value
2023-04-06T00:01:26.368Z,102075.94
2023-04-06T00:03:27.988Z,102074.97
2023-04-06T00:05:31.571Z,102072.28
2023-04-06T00:07:34.396Z,102072.22
2023-04-06T00:09:35.925Z,102072.13
2023-04-06T00:11:37.450Z,102068.56
2023-04-06T00:13:38.989Z,102064.06
2023-04-06T00:15:40.516Z,102064.00
2023-04-06T00:17:42.073Z,102065.69
2023-04-06T00:19:43.600Z,102063.84
2023-04-06T00:21:45.185Z,102065.50
2023-04-06T00:23:46.746Z,102067.19
2023-04-06T00:25:48.264Z,102066.28
2023-04-06T00:27:49.806Z,102057.47
2023-04-06T00:30:13.234Z,102054.75
2023-04-06T00:32:14.881Z,102056.38
2023-04-06T00:34:17.036Z,102051.94
2023-04-06T00:36:18.687Z,102045.75
2023-04-06T00:38:20.241Z,102052.63
2023-04-06T00:40:21.787Z,102047.34
2023-04-06T00:42:26.878Z,102045.59
2023-04-06T00:44:28.714Z,102041.13
2023-04-06T00:46:30.569Z,102039.38
2023-04-06T00:48:32.437Z,102042.84
2023-04-06T00:50:34.401Z,102041.94
2023-04-06T00:52:36.732Z,102036.69
2023-04-06T00:54:38.325Z,102039.25
2023-04-06T00:56:39.941Z,102037.44
2023-04-06T00:58:41.704Z,102040.84
2023-04-06T01:00:43.562Z,102031.19
2023-04-06T01:02:46.281Z,102018.94
2023-04-06T01:04:48.143Z,102036.22
2023-04-06T01:06:51.009Z,102028.34
2023-04-06T01:08:52.547Z,102030.84
2023-04-06T01:10:54.037Z,102028.19
2023-04-06T01:12:55.755Z,102025.50
2023-04-06T01:14:57.456Z,102023.72
2023-04-06T01:17:01.108Z,102019.22
2023-04-06T01:19:08.883Z,102024.31
2023-04-06T01:21:16.331Z,102019.91
2023-04-06T01:23:17.901Z,102022.47
2023-04-06T01:25:19.414Z,102018.94
2023-04-06T01:27:21.339Z,102015.41
2023-04-06T01:29:22.980Z,102022.28
2023-04-06T01:31:25.600Z,102015.31
2023-04-06T01:33:27.164Z,102012.69
2023-04-06T01:35:29.356Z,102011.81
2023-04-06T01:37:33.134Z,102016.06
2023-04-06T01:39:34.678Z,102009.94
2023-04-06T01:41:36.259Z,102009.06
2023-04-06T01:43:37.805Z,102006.38
2023-04-06T01:45:39.348Z,102007.19
2023-04-06T01:47:41.303Z,102006.25
2023-04-06T01:49:42.844Z,101999.25
2023-04-06T01:51:44.383Z,102000.91
2023-04-06T01:53:46.073Z,101999.16
2023-04-06T01:55:47.962Z,101996.50
2023-04-06T01:57:49.555Z,101994.69
2023-04-06T01:59:51.293Z,101996.31
2023-04-06T02:01:52.853Z,101996.31
2023-04-06T02:03:54.402Z,101994.56
2023-04-06T02:05:56.107Z,101988.38
2023-04-06T02:07:58.095Z,101991.03
2023-04-06T02:09:59.702Z,101989.22
2023-04-06T02:12:02.429Z,101981.38
2023-04-06T02:14:04.088Z,101984.78
2023-04-06T02:16:06.368Z,101981.25
2023-04-06T02:18:08.011Z,101973.41
2023-04-06T02:20:10.231Z,101980.28
2023-04-06T02:22:11.815Z,101981.09
2023-04-06T02:24:13.582Z,101975.81
2023-04-06T02:26:15.651Z,101976.66
2023-04-06T02:28:17.173Z,101974.84
2023-04-06T02:30:18.849Z,101979.16
2023-04-06T02:32:20.730Z,101976.56
2023-04-06T02:34:22.296Z,101981.66
2023-04-06T02:36:23.793Z,101972.94
2023-04-06T02:38:25.615Z,101972.91
2023-04-06T02:40:27.186Z,101967.66
2023-04-06T02:42:28.668Z,101976.28
2023-04-06T02:44:30.450Z,101966.69
2023-04-06T02:46:32.027Z,101964.88
2023-04-06T02:48:37.009Z,101975.22
2023-04-06T02:50:38.595Z,101972.56
2023-04-06T02:52:40.135Z,101965.56
2023-04-06T02:54:41.708Z,101962.91
2023-04-06T02:56:43.304Z,101964.59
2023-04-06T02:58:44.816Z,101960.22
2023-04-06T03:00:46.450Z,101964.50
2023-04-06T03:02:48.173Z,101955.78
2023-04-06T03:04:49.813Z,101960.91
2023-04-06T03:06:51.330Z,101962.59
2023-04-06T03:08:52.862Z,101957.38
2023-04-06T03:10:54.723Z,101960.78
2023-04-06T03:12:56.289Z,101952.09
2023-04-06T03:14:57.785Z,101956.34
2023-04-06T03:16:59.333Z,101952.88
2023-04-06T03:19:00.967Z,101947.66
2023-04-06T03:21:02.571Z,101947.59
2023-04-06T03:23:04.079Z,101951.84
2023-04-06T03:25:06.162Z,101957.84
2023-04-06T03:27:07.736Z,101946.47
2023-04-06T03:29:09.397Z,101950.78
2023-04-06T03:31:11.384Z,101946.44
2023-04-06T03:33:12.886Z,101948.16
2023-04-06T03:35:14.484Z,101939.44
2023-04-06T03:37:15.991Z,101949.75
2023-04-06T03:39:17.575Z,101950.59
2023-04-06T03:41:19.163Z,101943.63
2023-04-06T03:43:20.774Z,101947.03
2023-04-06T03:45:22.311Z,101954.75
2023-04-06T03:47:23.932Z,101950.41
2023-04-06T03:49:25.520Z,101945.16
2023-04-06T03:51:28.606Z,101944.22
2023-04-06T03:53:30.137Z,101948.53
2023-04-06T03:55:31.665Z,101945.88
2023-04-06T03:57:33.241Z,101946.66
2023-04-06T03:59:34.839Z,101946.63
2023-04-06T04:01:36.503Z,101950.03
2023-04-06T04:03:38.159Z,101950.88
2023-04-06T04:05:39.675Z,101953.41
2023-04-06T04:07:41.242Z,101950.81
2023-04-06T04:09:42.733Z,101952.53
2023-04-06T04:11:44.369Z,101953.38
2023-04-06T04:13:45.959Z,101958.50
2023-04-06T04:15:48.615Z,101953.28
2023-04-06T04:17:50.484Z,101954.94
2023-04-06T04:19:52.088Z,101958.31
2023-04-06T04:21:53.716Z,101953.94
2023-04-06T04:23:55.290Z,101959.97
2023-04-06T04:25:56.806Z,101955.56
2023-04-06T04:27:58.396Z,101958.97
2023-04-06T04:29:59.896Z,101947.63
2023-04-06T04:32:01.701Z,101945.88
2023-04-06T04:34:03.281Z,101952.78
2023-04-06T04:36:05.406Z,101958.78
2023-04-06T04:38:07.267Z,101962.22
2023-04-06T04:40:09.492Z,101956.13
2023-04-06T04:42:11.427Z,101956.97
2023-04-06T04:44:13.174Z,101956.03
2023-04-06T04:46:14.775Z,101962.94
2023-04-06T04:48:16.495Z,101959.47
2023-04-06T04:50:18.215Z,101960.28
2023-04-06T04:52:19.788Z,101957.69
2023-04-06T04:54:21.338Z,101949.88
2023-04-06T04:56:22.962Z,101956.81
2023-04-06T04:58:24.495Z,101953.34
2023-04-06T05:00:26.800Z,101954.16
2023-04-06T05:02:28.541Z,101955.94
2023-04-06T05:04:30.168Z,101956.81
2023-04-06T05:06:32.012Z,101955.94
2023-04-06T05:08:33.522Z,101956.81
2023-04-06T05:10:36.382Z,101957.75
2023-04-06T05:12:38.689Z,101951.72
2023-04-06T05:14:40.768Z,101955.25
2023-04-06T05:16:42.347Z,101948.41
2023-04-06T05:18:44.021Z,101955.41
2023-04-06T05:20:45.589Z,101952.03
2023-04-06T05:22:50.336Z,101957.38
2023-04-06T05:24:51.902Z,101949.69
2023-04-06T05:26:59.833Z,101954.16
2023-04-06T05:29:02.000Z,101951.72
2023-04-06T05:31:03.724Z,101941.44
2023-04-06T05:33:08.059Z,101944.16
2023-04-06T05:35:10.070Z,101953.81
2023-04-06T05:37:11.616Z,101959.13
2023-04-06T05:39:14.112Z,101958.44
2023-04-06T05:41:15.621Z,101952.50
2023-04-06T05:43:17.126Z,101944.91
2023-04-06T05:45:19.534Z,101953.72
2023-04-06T05:47:21.132Z,101952.09
2023-04-06T05:49:22.668Z,101946.16
2023-04-06T05:51:24.289Z,101948.97
2023-04-06T05:53:27.506Z,101948.22
2023-04-06T05:55:29.096Z,101944.88
2023-04-06T05:57:30.685Z,101951.09
2023-04-06T05:59:32.623Z,101940.84
2023-04-06T06:01:35.807Z,101947.84
2023-04-06T06:03:37.386Z,101948.06
2023-04-06T06:05:38.916Z,101940.38
2023-04-06T06:07:40.478Z,101945.66
2023-04-06T06:09:42.059Z,101947.50
2023-04-06T06:11:43.625Z,101946.75
2023-04-06T06:13:45.211Z,101949.47
2023-04-06T06:15:47.117Z,101955.63
2023-04-06T06:17:48.652Z,101953.16
2023-04-06T06:19:50.300Z,101952.41
2023-04-06T06:21:51.874Z,101949.91
2023-04-06T06:23:55.034Z,101953.47
2023-04-06T06:25:58.917Z,101951.00
2023-04-06T06:28:00.688Z,101952.88
2023-04-06T06:30:02.924Z,101952.09
2023-04-06T06:32:04.681Z,101946.13
2023-04-06T06:34:06.489Z,101944.53
2023-04-06T06:36:08.182Z,101943.78
2023-04-06T06:38:09.703Z,101955.22
2023-04-06T06:40:14.027Z,101953.56
2023-04-06T06:42:15.777Z,101954.56
2023-04-06T06:44:17.743Z,101953.78
2023-04-06T06:46:19.352Z,101947.91
2023-04-06T06:48:21.120Z,101948.06
2023-04-06T06:50:22.662Z,101945.56
2023-04-06T06:52:25.101Z,101952.59
2023-04-06T06:54:26.642Z,101941.41
2023-04-06T06:56:28.953Z,101946.78
2023-04-06T06:58:30.631Z,101941.72
2023-04-06T07:00:32.140Z,101936.63
2023-04-06T07:02:35.317Z,101933.31
2023-04-06T07:04:36.884Z,101938.72
2023-04-06T07:06:38.508Z,101931.88
2023-04-06T07:08:40.073Z,101927.66
2023-04-06T07:10:41.602Z,101933.88
2023-04-06T07:12:43.169Z,101928.81
2023-04-06T07:14:44.789Z,101933.31
2023-04-06T07:16:47.898Z,101929.97
2023-04-06T07:18:49.564Z,101921.38
2023-04-06T07:20:51.261Z,101931.19
2023-04-06T07:22:52.861Z,101924.28
2023-04-06T07:24:56.372Z,101927.91
2023-04-06T07:27:01.549Z,101923.78
2023-04-06T07:29:03.056Z,101923.06
2023-04-06T07:31:04.615Z,101915.41
2023-04-06T07:33:06.809Z,101915.63
2023-04-06T07:35:08.507Z,101909.69
2023-04-06T07:37:10.000Z,101905.50
2023-04-06T07:39:11.709Z,101908.28
2023-04-06T07:41:13.223Z,101905.81
2023-04-06T07:43:14.716Z,101906.84
2023-04-06T07:45:16.925Z,101903.59
2023-04-06T07:47:18.419Z,101904.59
2023-04-06T07:49:21.711Z,101908.25
2023-04-06T07:51:23.241Z,101903.19
2023-04-06T07:53:25.060Z,101906.00
2023-04-06T07:55:26.565Z,101900.84
2023-04-06T07:57:28.083Z,101895.78
2023-04-06T07:59:29.662Z,101897.66
2023-04-06T08:01:31.533Z,101893.47
2023-04-06T08:03:35.808Z,101892.78
2023-04-06T08:05:37.393Z,101896.44
2023-04-06T08:07:38.968Z,101895.69
2023-04-06T08:09:40.628Z,101894.03
2023-04-06T08:11:42.233Z,101888.94
2023-04-06T08:13:43.786Z,101899.47
2023-04-06T08:15:45.452Z,101890.91
2023-04-06T08:17:47.145Z,101887.56
2023-04-06T08:19:48.746Z,101887.72
2023-04-06T08:21:50.405Z,101891.34
2023-04-06T08:23:51.962Z,101880.13
2023-04-06T08:25:55.210Z,101878.47
2023-04-06T08:27:57.117Z,101875.88
2023-04-06T08:29:58.626Z,101875.91
2023-04-06T08:32:00.177Z,101874.25
2023-04-06T08:34:02.781Z,101875.22
2023-04-06T08:36:12.437Z,101878.78
2023-04-06T08:38:13.997Z,101873.66
2023-04-06T08:40:16.119Z,101876.38
2023-04-06T08:42:21.899Z,101873.81
2023-04-06T08:44:24.207Z,101869.56
2023-04-06T08:46:30.750Z,101872.34
2023-04-06T08:48:34.360Z,101871.59
2023-04-06T08:50:37.054Z,101874.31
2023-04-06T08:52:39.184Z,101870.03
2023-04-06T08:54:40.762Z,101881.47
2023-04-06T08:56:43.320Z,101878.91
2023-04-06T08:58:46.283Z,101883.31
2023-04-06T09:00:48.349Z,101878.09
2023-04-06T09:02:51.095Z,101879.00
2023-04-06T09:04:54.685Z,101874.66
2023-04-06T09:06:56.370Z,101874.72
2023-04-06T09:08:59.057Z,101873.00
2023-04-06T09:11:02.150Z,101870.44
2023-04-06T09:13:07.989Z,101867.84
2023-04-06T09:15:21.567Z,101867.88
2023-04-06T09:17:27.148Z,101867.06
2023-04-06T09:19:28.794Z,101866.19
2023-04-06T09:21:30.286Z,101861.81
2023-04-06T09:23:32.356Z,101868.84
2023-04-06T09:25:33.972Z,101857.47
2023-04-06T09:27:37.361Z,101860.16
2023-04-06T09:29:38.970Z,101863.66
2023-04-06T09:31:40.641Z,101857.53
2023-04-06T09:33:46.848Z,101861.03
2023-04-06T09:35:51.322Z,101853.16
2023-04-06T09:37:53.713Z,101858.41
2023-04-06T09:40:07.020Z,101844.41
2023-04-06T09:42:09.232Z,101844.38
2023-04-06T09:44:12.272Z,101841.75
2023-04-06T09:46:14.895Z,101852.25
2023-04-06T09:48:17.049Z,101851.34
2023-04-06T09:50:20.624Z,101850.47
2023-04-06T09:52:25.016Z,101845.22
2023-04-06T09:54:30.579Z,101841.72
2023-04-06T09:56:38.930Z,101846.94
2023-04-06T09:58:44.260Z,101846.88
2023-04-06T10:00:54.597Z,101849.47
2023-04-06T10:03:04.327Z,101852.91
2023-04-06T10:05:14.001Z,101852.84
2023-04-06T10:07:16.668Z,101851.03
2023-04-06T10:09:18.365Z,101849.25
2023-04-06T10:11:20.239Z,101848.31
2023-04-06T10:13:21.883Z,101845.63
2023-04-06T10:15:23.570Z,101844.69
2023-04-06T10:17:25.604Z,101842.88
2023-04-06T10:19:34.572Z,101834.03
2023-04-06T10:21:38.134Z,101841.81
2023-04-06T10:23:49.275Z,101840.84
2023-04-06T10:25:55.922Z,101834.63
2023-04-06T10:28:06.909Z,101838.97
2023-04-06T10:30:08.683Z,101842.38
2023-04-06T10:32:10.350Z,101828.22
2023-04-06T10:34:12.050Z,101836.94
2023-04-06T10:36:15.669Z,101830.66
2023-04-06T10:38:21.987Z,101834.88
2023-04-06T10:40:27.323Z,101834.72
2023-04-06T10:42:41.127Z,101835.44
2023-04-06T10:44:46.550Z,101822.91
2023-04-06T10:46:56.443Z,101832.34
2023-04-06T10:48:58.849Z,101828.63
2023-04-06T10:51:00.413Z,101820.53
2023-04-06T10:53:03.808Z,101829.88
2023-04-06T10:55:06.965Z,101821.47
2023-04-06T10:57:08.489Z,101817.50
2023-04-06T10:59:10.084Z,101817.72
2023-04-06T11:01:12.638Z,101814.13
2023-04-06T11:03:15.133Z,101818.28
2023-04-06T11:05:16.714Z,101807.44
2023-04-06T11:07:24.373Z,101814.88
2023-04-06T11:09:29.269Z,101810.13
2023-04-06T11:11:30.848Z,101809.72
2023-04-06T11:13:43.867Z,101807.41
2023-04-06T11:15:45.661Z,101797.09
2023-04-06T11:17:47.219Z,101796.59
2023-04-06T11:19:48.814Z,101803.66
2023-04-06T11:21:50.706Z,101791.56
2023-04-06T11:23:52.256Z,101799.50
2023-04-06T11:25:55.073Z,101794.00
2023-04-06T11:27:56.680Z,101794.59
2023-04-06T11:29:58.606Z,101790.03
2023-04-06T11:32:03.162Z,101792.63
2023-04-06T11:34:10.627Z,101787.72
2023-04-06T11:36:15.854Z,101786.34
2023-04-06T11:38:21.047Z,101785.78
2023-04-06T11:40:23.861Z,101775.91
2023-04-06T11:42:30.462Z,101782.16
2023-04-06T11:44:35.754Z,101778.00
2023-04-06T11:46:37.453Z,101767.41
2023-04-06T11:48:46.402Z,101770.53
2023-04-06T11:50:49.660Z,101754.59
2023-04-06T11:53:01.102Z,101759.13
2023-04-06T11:55:15.820Z,101760.41
2023-04-06T11:57:18.662Z,101761.75
2023-04-06T11:59:21.115Z,101756.53
2023-04-06T12:01:22.970Z,101759.97
2023-04-06T12:03:24.593Z,101745.38
2023-04-06T12:05:26.306Z,101751.81
2023-04-06T12:07:27.966Z,101753.56
2023-04-06T12:09:30.249Z,101746.66
2023-04-06T12:11:31.920Z,101746.47
2023-04-06T12:13:33.453Z,101744.50
2023-04-06T12:15:35.057Z,101740.94
2023-04-06T12:17:37.969Z,101740.56
2023-04-06T12:19:39.541Z,101746.84
2023-04-06T12:21:41.526Z,101734.84
2023-04-06T12:23:43.052Z,101726.81
2023-04-06T12:25:44.967Z,101736.97
2023-04-06T12:27:46.661Z,101735.03
2023-04-06T12:29:48.556Z,101730.81
2023-04-06T12:31:50.203Z,101728.28
2023-04-06T12:33:52.902Z,101732.28
2023-04-06T12:35:54.428Z,101726.00
2023-04-06T12:37:56.032Z,101729.13
2023-04-06T12:39:57.579Z,101718.44
2023-04-06T12:41:59.126Z,101717.06
2023-04-06T12:44:00.821Z,101726.22
2023-04-06T12:46:02.374Z,101728.41
2023-04-06T12:48:04.055Z,101723.28
2023-04-06T12:50:09.341Z,101724.16
2023-04-06T12:52:12.149Z,101714.44
2023-04-06T12:54:13.880Z,101716.59
2023-04-06T12:56:18.331Z,101712.53
2023-04-06T12:58:20.137Z,101715.22
2023-04-06T13:00:22.210Z,101711.19
2023-04-06T13:02:24.418Z,101715.47
2023-04-06T13:04:26.042Z,101707.31
2023-04-06T13:06:28.895Z,101714.53
2023-04-06T13:08:30.852Z,101709.03
2023-04-06T13:10:32.416Z,101708.81
2023-04-06T13:12:33.907Z,101705.22
2023-04-06T13:14:35.585Z,101711.28
2023-04-06T13:16:37.318Z,101706.66
2023-04-06T13:18:40.004Z,101710.84
2023-04-06T13:20:42.340Z,101701.31
2023-04-06T13:22:43.863Z,101708.50
2023-04-06T13:24:45.420Z,101699.88
2023-04-06T13:26:46.925Z,101702.84
2023-04-06T13:28:48.835Z,101700.47
2023-04-06T13:30:50.802Z,101702.47
2023-04-06T13:32:52.731Z,101696.31
2023-04-06T13:34:57.717Z,101685.34
2023-04-06T13:36:59.255Z,101688.25
2023-04-06T13:39:00.930Z,101689.97
2023-04-06T13:41:02.472Z,101688.09
2023-04-06T13:43:03.989Z,101678.97
2023-04-06T13:45:06.043Z,101674.19
2023-04-06T13:47:07.745Z,101684.63
2023-04-06T13:49:09.328Z,101690.81
2023-04-06T13:51:12.444Z,101682.38
2023-04-06T13:53:14.581Z,101677.13
2023-04-06T13:55:16.250Z,101675.94
2023-04-06T13:57:17.890Z,101677.19
2023-04-06T13:59:19.416Z,101675.97
2023-04-06T14:01:21.324Z,101676.44
2023-04-06T14:03:23.366Z,101674.00
2023-04-06T14:05:24.977Z,101673.25
2023-04-06T14:07:27.069Z,101663.91
2023-04-06T14:09:29.633Z,101660.69
2023-04-06T14:11:31.227Z,101656.75
2023-04-06T14:13:32.694Z,101670.31
2023-04-06T14:15:34.596Z,101669.91
2023-04-06T14:17:36.290Z,101661.97
2023-04-06T14:19:37.752Z,101668.75
2023-04-06T14:21:40.312Z,101670.59
2023-04-06T14:23:42.082Z,101671.63
2023-04-06T14:25:43.765Z,101665.75
2023-04-06T14:27:45.486Z,101671.34
2023-04-06T14:29:46.925Z,101666.53
2023-04-06T14:31:49.269Z,101674.75
2023-04-06T14:33:50.751Z,101662.28
2023-04-06T14:35:52.221Z,101664.72
2023-04-06T14:37:53.715Z,101662.91
2023-04-06T14:39:55.301Z,101653.75
2023-04-06T14:41:56.854Z,101655.16
2023-04-06T14:43:58.369Z,101652.47
2023-04-06T14:46:03.388Z,101658.78
2023-04-06T14:48:06.865Z,101655.31
2023-04-06T14:50:09.039Z,101651.16
2023-04-06T14:52:10.549Z,101654.75
2023-04-06T14:54:12.068Z,101656.88
2023-04-06T14:56:13.571Z,101652.28
2023-04-06T14:58:15.003Z,101651.31
2023-04-06T15:00:16.870Z,101658.91
2023-04-06T15:02:18.636Z,101646.75
2023-04-06T15:04:20.374Z,101648.88
2023-04-06T15:06:22.469Z,101648.81
2023-04-06T15:08:24.602Z,101652.94
2023-04-06T15:10:26.153Z,101647.63
2023-04-06T15:12:27.696Z,101642.25
2023-04-06T15:14:29.176Z,101644.84
2023-04-06T15:16:33.825Z,101636.19
2023-04-06T15:18:36.438Z,101638.34
2023-04-06T15:20:38.552Z,101637.72
2023-04-06T15:22:40.378Z,101635.38
2023-04-06T15:24:41.848Z,101641.81
2023-04-06T15:26:43.345Z,101630.53
2023-04-06T15:28:44.994Z,101638.66
2023-04-06T15:30:46.508Z,101639.09
2023-04-06T15:32:57.396Z,101636.72
2023-04-06T15:35:00.664Z,101627.13
2023-04-06T15:37:02.625Z,101632.25
2023-04-06T15:39:04.878Z,101625.09
2023-04-06T15:41:06.628Z,101627.50
2023-04-06T15:43:08.097Z,101632.41
2023-04-06T15:45:13.633Z,101626.56
2023-04-06T15:47:15.449Z,101629.84
2023-04-06T15:49:16.897Z,101628.31
2023-04-06T15:51:18.377Z,101626.38
2023-04-06T15:53:19.881Z,101618.34
2023-04-06T15:55:21.491Z,101623.03
2023-04-06T15:57:22.956Z,101619.31
2023-04-06T15:59:24.424Z,101616.44
2023-04-06T16:01:26.160Z,101622.09
2023-04-06T16:03:28.548Z,101615.28
2023-04-06T16:05:34.599Z,101622.84
2023-04-06T16:07:38.303Z,101616.50
2023-04-06T16:09:39.802Z,101620.19
2023-04-06T16:11:41.311Z,101625.56
2023-04-06T16:13:45.062Z,101618.78
2023-04-06T16:15:52.351Z,101622.25
2023-04-06T16:17:54.029Z,101624.09
2023-04-06T16:19:55.630Z,101616.34
2023-04-06T16:21:57.758Z,101621.91
2023-04-06T16:23:59.899Z,101621.81
2023-04-06T16:26:01.942Z,101620.94
2023-04-06T16:28:03.433Z,101615.72
2023-04-06T16:30:05.804Z,101615.00
2023-04-06T16:32:07.619Z,101618.34
2023-04-06T16:34:09.221Z,101622.53
2023-04-06T16:36:11.638Z,101621.47
2023-04-06T16:38:14.566Z,101621.38
2023-04-06T16:40:16.461Z,101619.59
2023-04-06T16:42:20.413Z,101609.88
2023-04-06T16:44:21.913Z,101612.53
2023-04-06T16:46:33.566Z,101619.50
2023-04-06T16:48:35.156Z,101612.53
2023-04-06T16:50:36.704Z,101612.66
2023-04-06T16:52:38.176Z,101614.53
2023-04-06T16:54:39.688Z,101615.63
2023-04-06T16:56:41.159Z,101604.53
2023-04-06T16:58:42.622Z,101610.09
2023-04-06T17:00:45.256Z,101607.91
2023-04-06T17:02:47.723Z,101615.16
2023-04-06T17:04:49.325Z,101608.25
2023-04-06T17:06:51.401Z,101605.19
2023-04-06T17:08:53.983Z,101611.63
2023-04-06T17:10:59.595Z,101610.94
2023-04-06T17:13:06.222Z,101608.44
2023-04-06T17:15:08.375Z,101610.41
2023-04-06T17:17:10.121Z,101615.06
2023-04-06T17:19:11.688Z,101613.50
2023-04-06T17:21:17.057Z,101613.66
2023-04-06T17:23:18.659Z,101612.09
2023-04-06T17:25:21.312Z,101612.25
2023-04-06T17:27:23.626Z,101614.19
2023-04-06T17:29:25.252Z,101616.06
2023-04-06T17:31:27.204Z,101619.78
2023-04-06T17:33:29.361Z,101620.91
2023-04-06T17:35:31.969Z,101610.47
2023-04-06T17:37:33.704Z,101622.16
2023-04-06T17:39:35.693Z,101621.47
2023-04-06T17:41:38.368Z,101618.16
2023-04-06T17:43:40.165Z,101627.19
2023-04-06T17:45:41.875Z,101630.03
2023-04-06T17:47:43.399Z,101628.44
2023-04-06T17:49:44.986Z,101631.22
2023-04-06T17:51:46.918Z,101626.22
2023-04-06T17:53:48.649Z,101627.34
2023-04-06T17:55:50.344Z,101628.41
2023-04-06T17:57:52.015Z,101627.66
2023-04-06T17:59:54.358Z,101630.44
2023-04-06T18:01:56.232Z,101637.66
2023-04-06T18:03:57.783Z,101633.41
2023-04-06T18:06:15.181Z,101632.69
2023-04-06T18:08:16.914Z,101643.50
2023-04-06T18:10:18.938Z,101640.13
2023-04-06T18:12:20.606Z,101638.72
2023-04-06T18:14:22.335Z,101640.09
2023-04-06T18:16:23.954Z,101644.75
2023-04-06T18:18:26.048Z,101651.63
2023-04-06T18:20:27.543Z,101650.72
2023-04-06T18:22:29.093Z,101643.66
2023-04-06T18:24:41.501Z,101647.28
2023-04-06T18:26:43.935Z,101648.22
2023-04-06T18:28:46.569Z,101652.72
2023-04-06T18:30:48.494Z,101647.53
2023-04-06T18:32:50.596Z,101657.31
2023-04-06T18:34:52.123Z,101649.44
2023-04-06T18:36:53.690Z,101651.28
2023-04-06T18:38:55.418Z,101654.00
2023-04-06T18:40:57.034Z,101655.84
2023-04-06T18:42:58.567Z,101663.78
2023-04-06T18:45:00.634Z,101660.38
2023-04-06T18:47:02.185Z,101662.19
2023-04-06T18:49:05.014Z,101661.38
2023-04-06T18:51:06.493Z,101666.75
2023-04-06T18:53:07.966Z,101665.00
2023-04-06T18:55:09.608Z,101666.84
2023-04-06T18:57:11.377Z,101666.91
2023-04-06T18:59:13.971Z,101661.69
2023-04-06T19:01:27.678Z,101666.16
2023-04-06T19:03:29.424Z,101669.78
2023-04-06T19:05:31.103Z,101665.44
2023-04-06T19:07:34.279Z,101668.13
2023-04-06T19:09:35.780Z,101672.53
2023-04-06T19:11:37.251Z,101663.75
2023-04-06T19:13:39.114Z,101662.06
2023-04-06T19:15:43.942Z,101667.41
2023-04-06T19:17:45.704Z,101669.22
2023-04-06T19:19:47.202Z,101665.75
2023-04-06T19:21:48.837Z,101669.34
2023-04-06T19:23:52.817Z,101671.16
2023-04-06T19:25:56.271Z,101668.56
2023-04-06T19:27:58.376Z,101667.75
2023-04-06T19:30:00.481Z,101667.78
2023-04-06T19:32:02.489Z,101665.19
2023-04-06T19:34:04.927Z,101674.91
2023-04-06T19:36:07.900Z,101662.66
2023-04-06T19:38:09.384Z,101661.84
2023-04-06T19:40:11.012Z,101667.13
2023-04-06T19:42:12.555Z,101665.41
2023-04-06T19:44:14.085Z,101664.59
2023-04-06T19:46:15.783Z,101669.88
2023-04-06T19:48:17.460Z,101664.66
2023-04-06T19:50:19.005Z,101671.72
2023-04-06T19:52:21.702Z,101668.22
2023-04-06T19:54:23.967Z,101667.41
2023-04-06T19:56:26.072Z,101673.56
2023-04-06T19:58:27.554Z,101670.97
2023-04-06T20:00:29.193Z,101667.50
2023-04-06T20:02:30.816Z,101678.06
2023-04-06T20:04:32.398Z,101667.53
2023-04-06T20:06:33.933Z,101669.28
2023-04-06T20:08:35.639Z,101665.78
2023-04-06T20:10:37.171Z,101671.97
2023-04-06T20:12:39.230Z,101672.88
2023-04-06T20:14:40.880Z,101668.50
2023-04-06T20:16:42.472Z,101665.91
2023-04-06T20:18:44.010Z,101666.81
2023-04-06T20:20:45.518Z,101666.81
2023-04-06T20:22:49.987Z,101677.41
2023-04-06T20:24:51.658Z,101674.78
2023-04-06T20:26:53.227Z,101666.06
2023-04-06T20:28:54.754Z,101666.94
2023-04-06T20:30:56.325Z,101670.47
2023-04-06T20:32:57.914Z,101670.50
2023-04-06T20:34:59.364Z,101679.28
2023-04-06T20:37:00.881Z,101670.50
2023-04-06T20:39:02.419Z,101673.16
2023-04-06T20:41:03.974Z,101669.69
2023-04-06T20:43:05.942Z,101669.69
2023-04-06T20:45:07.888Z,101671.47
2023-04-06T20:47:09.368Z,101673.25
2023-04-06T20:49:11.149Z,101667.13
2023-04-06T20:51:20.390Z,101658.41
2023-04-06T20:53:22.071Z,101672.44
2023-04-06T20:55:23.571Z,101673.31
2023-04-06T20:57:25.700Z,101694.41
2023-04-06T20:59:28.062Z,101706.78
2023-04-06T21:01:29.658Z,101685.75
2023-04-06T21:03:31.330Z,101671.69
2023-04-06T21:05:33.026Z,101699.78
2023-04-06T21:07:34.481Z,101684.91
2023-04-06T21:09:40.803Z,101676.13
2023-04-06T21:11:42.328Z,101679.63
2023-04-06T21:13:43.823Z,101675.28
2023-04-06T21:15:45.365Z,101681.41
2023-04-06T21:17:46.896Z,101684.91
2023-04-06T21:19:48.614Z,101678.75
2023-04-06T21:21:50.810Z,101674.38
2023-04-06T21:23:55.498Z,101670.00
2023-04-06T21:25:57.584Z,101665.63
2023-04-06T21:27:59.071Z,101671.78
2023-04-06T21:30:00.660Z,101676.16
2023-04-06T21:32:02.390Z,101671.78
2023-04-06T21:34:08.635Z,101674.41
2023-04-06T21:36:10.148Z,101678.81
2023-04-06T21:38:11.756Z,101679.69
2023-04-06T21:40:13.415Z,101677.94
2023-04-06T21:42:14.912Z,101675.31
2023-04-06T21:44:16.568Z,101670.06
2023-04-06T21:46:18.028Z,101676.22
2023-04-06T21:48:19.680Z,101665.72
2023-04-06T21:50:21.167Z,101670.09
2023-04-06T21:52:22.616Z,101678.88
2023-04-06T21:54:24.145Z,101662.25
2023-04-06T21:56:26.344Z,101670.09
2023-04-06T21:58:27.818Z,101675.34
2023-04-06T22:00:29.289Z,101672.72
2023-04-06T22:02:32.148Z,101671.00
2023-04-06T22:04:33.990Z,101668.38
2023-04-06T22:06:36.792Z,101667.50
2023-04-06T22:08:38.365Z,101661.38
2023-04-06T22:10:40.702Z,101667.50
2023-04-06T22:12:42.193Z,101658.75
2023-04-06T22:14:43.681Z,101667.50
2023-04-06T22:16:45.496Z,101668.38
2023-04-06T22:18:47.008Z,101675.41
2023-04-06T22:20:48.660Z,101670.16
2023-04-06T22:22:50.269Z,101682.41
2023-04-06T22:24:52.241Z,101675.41
2023-04-06T22:26:53.702Z,101669.28
2023-04-06T22:28:55.422Z,101677.16
2023-04-06T22:30:56.887Z,101678.91
2023-04-06T22:32:58.560Z,101670.16
2023-04-06T22:35:00.156Z,101678.91
2023-04-06T22:37:01.676Z,101681.50
2023-04-06T22:39:03.174Z,101681.50
2023-04-06T22:41:06.048Z,101685.00
2023-04-06T22:43:08.889Z,101682.38
2023-04-06T22:45:10.859Z,101684.13
2023-04-06T22:47:12.456Z,101680.63
2023-04-06T22:49:13.977Z,101692.88
2023-04-06T22:51:15.473Z,101684.13
2023-04-06T22:53:16.958Z,101679.75
2023-04-06T22:55:18.520Z,101689.38
2023-04-06T22:57:20.213Z,101691.09
2023-04-06T22:59:21.741Z,101684.09
2023-04-06T23:01:23.314Z,101689.34
2023-04-06T23:03:25.057Z,101684.09
2023-04-06T23:05:26.695Z,101690.22
2023-04-06T23:07:28.192Z,101680.59
2023-04-06T23:09:29.812Z,101687.56
2023-04-06T23:11:31.327Z,101684.94
2023-04-06T23:13:32.812Z,101687.53
2023-04-06T23:15:34.380Z,101690.16
2023-04-06T23:17:36.108Z,101685.78